createdAt,value
2022-08-26T00:02:16.118Z,0.52
2022-08-26T00:04:52.455Z,0.93
2022-08-26T00:07:24.493Z,1.00
2022-08-26T00:10:02.595Z,1.20
2022-08-26T00:12:37.324Z,2.25
2022-08-26T00:15:16.585Z,1.98
2022-08-26T00:17:49.794Z,1.70
2022-08-26T00:20:30.618Z,1.52
2022-08-26T00:23:08.457Z,0.95
2022-08-26T00:25:45.345Z,1.30
2022-08-26T00:28:19.054Z,0.90
2022-08-26T00:30:56.391Z,0.68
2022-08-26T00:33:28.364Z,1.10
2022-08-26T00:35:59.982Z,0.55
2022-08-26T00:38:32.899Z,1.33
2022-08-26T00:41:10.622Z,1.30
2022-08-26T00:43:55.486Z,0.93
2022-08-26T00:46:35.441Z,0.55
2022-08-26T00:52:33.449Z,1.17
2022-08-26T00:55:22.500Z,0.98
2022-08-26T00:57:59.184Z,0.40
2022-08-26T01:00:36.463Z,1.25
2022-08-26T01:03:14.344Z,1.38
2022-08-26T01:05:53.127Z,1.13
2022-08-26T01:08:27.939Z,2.55
2022-08-26T01:11:13.840Z,1.85
2022-08-26T01:13:52.520Z,1.27
2022-08-26T01:16:26.259Z,1.15
2022-08-26T01:19:12.000Z,1.10
2022-08-26T01:21:51.697Z,1.48
2022-08-26T01:24:26.325Z,0.85
2022-08-26T01:27:03.692Z,0.85
2022-08-26T01:29:39.383Z,0.50
2022-08-26T01:32:18.811Z,1.77
2022-08-26T01:34:56.141Z,1.00
2022-08-26T01:37:34.202Z,1.08
2022-08-26T01:40:11.805Z,1.20
2022-08-26T01:42:49.549Z,0.60
2022-08-26T01:45:25.371Z,1.20
2022-08-26T01:48:07.231Z,0.90
2022-08-26T01:50:42.356Z,1.35
2022-08-26T01:53:22.372Z,1.30
2022-08-26T01:56:01.668Z,1.33
2022-08-26T01:58:43.852Z,1.05
2022-08-26T02:01:17.441Z,0.60
2022-08-26T02:04:06.580Z,0.90
2022-08-26T02:06:40.876Z,1.10
2022-08-26T02:09:18.287Z,1.10
2022-08-26T02:11:56.952Z,1.20
2022-08-26T02:14:43.826Z,0.98
2022-08-26T02:17:18.163Z,0.95
2022-08-26T02:20:00.929Z,0.80
2022-08-26T02:22:38.123Z,1.63
2022-08-26T02:25:23.304Z,1.90
2022-08-26T02:27:57.023Z,0.98
2022-08-26T02:30:32.837Z,1.20
2022-08-26T02:33:08.050Z,0.75
2022-08-26T02:35:46.270Z,1.25
2022-08-26T02:38:24.913Z,0.70
2022-08-26T02:40:57.544Z,1.13
2022-08-26T02:43:32.869Z,1.70
2022-08-26T02:46:09.614Z,1.30
2022-08-26T02:48:41.409Z,1.15
2022-08-26T02:51:18.517Z,1.05
2022-08-26T02:53:55.345Z,0.93
2022-08-26T02:56:27.338Z,0.60
2022-08-26T02:59:01.044Z,0.95
2022-08-26T03:01:36.817Z,1.00
2022-08-26T03:04:13.302Z,1.80
2022-08-26T03:06:52.882Z,0.60
2022-08-26T03:09:24.561Z,1.20
2022-08-26T03:11:58.445Z,1.37
2022-08-26T03:14:31.660Z,1.23
2022-08-26T03:17:14.755Z,0.95
2022-08-26T03:19:54.675Z,1.13
2022-08-26T03:22:31.152Z,1.45
2022-08-26T03:25:03.290Z,1.15
2022-08-26T03:27:40.538Z,1.00
2022-08-26T03:30:39.099Z,1.15
2022-08-26T03:33:23.126Z,1.15
2022-08-26T03:35:55.941Z,1.08
2022-08-26T03:38:28.732Z,0.80
2022-08-26T03:41:05.759Z,0.85
2022-08-26T03:43:38.159Z,1.55
2022-08-26T03:46:16.513Z,0.77
2022-08-26T03:48:48.675Z,0.60
2022-08-26T03:53:31.783Z,1.02
2022-08-26T03:56:03.520Z,1.40
2022-08-26T03:58:45.881Z,0.85
2022-08-26T04:01:28.671Z,1.30
2022-08-26T04:04:02.159Z,1.42
2022-08-26T04:06:38.526Z,2.22
2022-08-26T04:09:15.292Z,1.10
2022-08-26T04:11:50.334Z,0.98
2022-08-26T04:14:29.945Z,1.40
2022-08-26T04:17:07.065Z,1.25
2022-08-26T04:19:41.192Z,1.67
2022-08-26T04:22:15.554Z,1.10
2022-08-26T04:24:57.567Z,1.27
2022-08-26T04:27:34.838Z,1.15
2022-08-26T04:30:08.237Z,0.63
2022-08-26T04:32:40.766Z,0.85
2022-08-26T04:35:20.934Z,1.10
2022-08-26T04:38:03.915Z,1.27
2022-08-26T04:40:39.055Z,1.35
2022-08-26T04:43:20.918Z,1.08
2022-08-26T04:48:32.366Z,0.80
2022-08-26T04:51:04.885Z,1.30
2022-08-26T04:53:37.611Z,1.05
2022-08-26T04:56:10.795Z,1.33
2022-08-26T04:58:43.101Z,1.13
2022-08-26T05:03:52.756Z,1.20
2022-08-26T05:06:24.594Z,0.85
2022-08-26T05:09:01.160Z,1.00
2022-08-26T05:11:36.040Z,1.23
2022-08-26T05:14:12.678Z,1.20
2022-08-26T05:16:49.733Z,1.15
2022-08-26T05:19:27.894Z,1.13
2022-08-26T05:21:59.932Z,1.25
2022-08-26T05:24:36.603Z,1.00
2022-08-26T05:27:12.066Z,1.00
2022-08-26T05:29:54.479Z,1.30
2022-08-26T05:32:29.212Z,1.30
2022-08-26T05:35:08.903Z,1.25
2022-08-26T05:37:41.740Z,1.15
2022-08-26T05:40:15.810Z,1.10
2022-08-26T05:42:49.559Z,1.38
2022-08-26T05:45:28.549Z,1.45
2022-08-26T05:48:00.659Z,1.15
2022-08-26T05:53:04.726Z,1.10
2022-08-26T05:55:37.726Z,1.50
2022-08-26T05:58:12.741Z,1.05
2022-08-26T06:00:45.418Z,1.55
2022-08-26T06:03:17.827Z,1.85
2022-08-26T06:05:49.672Z,1.63
2022-08-26T06:08:26.693Z,2.05
2022-08-26T06:11:05.954Z,1.85
2022-08-26T06:13:40.377Z,2.20
2022-08-26T06:16:15.819Z,1.83
2022-08-26T06:18:50.937Z,2.72
2022-08-26T06:21:26.857Z,1.60
2022-08-26T06:24:29.044Z,1.63
2022-08-26T06:27:15.965Z,2.08
2022-08-26T06:29:48.887Z,1.33
2022-08-26T06:32:20.765Z,1.58
2022-08-26T06:35:00.466Z,1.60
2022-08-26T06:37:38.598Z,1.33
2022-08-26T06:40:11.741Z,1.45
2022-08-26T06:42:44.154Z,2.13
2022-08-26T06:45:17.408Z,2.13
2022-08-26T06:47:53.995Z,1.70
2022-08-26T06:53:31.554Z,2.38
2022-08-26T06:56:06.830Z,1.67
2022-08-26T06:58:41.167Z,1.75
2022-08-26T07:01:31.156Z,1.55
2022-08-26T07:04:10.501Z,1.65
2022-08-26T07:06:53.001Z,2.17
2022-08-26T07:09:34.959Z,2.72
2022-08-26T07:12:11.917Z,2.85
2022-08-26T07:14:47.541Z,3.15
2022-08-26T07:17:25.888Z,2.88
2022-08-26T07:19:58.057Z,1.98
2022-08-26T07:25:08.028Z,2.83
2022-08-26T07:27:41.417Z,1.60
2022-08-26T07:30:15.411Z,1.83
2022-08-26T07:32:47.159Z,2.17
2022-08-26T07:35:19.091Z,2.22
2022-08-26T07:37:55.076Z,2.22
2022-08-26T07:40:31.728Z,3.15
2022-08-26T07:43:08.501Z,2.80
2022-08-26T07:45:41.079Z,2.40
2022-08-26T07:48:13.806Z,2.17
2022-08-26T07:50:51.448Z,1.73
2022-08-26T07:53:25.032Z,1.80
2022-08-26T07:55:59.501Z,2.33
2022-08-26T07:58:31.629Z,2.33
2022-08-26T08:03:42.071Z,1.60
2022-08-26T08:06:19.940Z,2.00
2022-08-26T08:08:52.723Z,2.03
2022-08-26T08:11:27.516Z,2.00
2022-08-26T08:14:01.932Z,1.90
2022-08-26T08:16:34.233Z,2.70
2022-08-26T08:19:07.169Z,1.70
2022-08-26T08:21:39.212Z,2.10
2022-08-26T08:26:46.540Z,1.80
2022-08-26T08:29:19.546Z,2.28
2022-08-26T08:31:56.620Z,2.25
2022-08-26T08:34:31.991Z,2.40
2022-08-26T08:37:07.357Z,2.42
2022-08-26T08:39:43.652Z,2.65
2022-08-26T08:42:40.926Z,3.15
2022-08-26T08:45:22.155Z,3.10
2022-08-26T08:48:02.834Z,3.67
2022-08-26T08:50:44.026Z,2.88
2022-08-26T08:53:19.412Z,2.80
2022-08-26T08:56:16.421Z,2.90
2022-08-26T08:59:04.925Z,3.03
2022-08-26T09:02:13.063Z,2.70
2022-08-26T09:05:15.388Z,2.22
2022-08-26T09:07:59.250Z,2.50
2022-08-26T09:10:38.820Z,3.00
2022-08-26T09:13:24.920Z,2.13
2022-08-26T09:16:10.021Z,2.28
2022-08-26T09:19:19.352Z,2.33
2022-08-26T09:21:59.955Z,2.88
2022-08-26T09:24:35.608Z,2.75
2022-08-26T09:27:11.319Z,2.83
2022-08-26T09:29:50.413Z,2.78
2022-08-26T09:32:28.672Z,2.55
2022-08-26T09:35:09.266Z,2.83
2022-08-26T09:40:35.020Z,2.85
2022-08-26T09:43:22.748Z,2.42
2022-08-26T09:46:14.559Z,2.33
2022-08-26T09:48:48.456Z,3.05
2022-08-26T09:53:36.906Z,3.08
2022-08-26T09:56:27.566Z,2.10
2022-08-26T09:59:01.238Z,3.20
2022-08-26T10:01:44.108Z,3.15
2022-08-26T10:04:28.476Z,3.13
2022-08-26T10:07:08.500Z,2.88
2022-08-26T10:09:48.420Z,2.25
2022-08-26T10:12:26.001Z,3.13
2022-08-26T10:17:51.506Z,3.08
2022-08-26T10:20:31.117Z,3.05
2022-08-26T10:23:18.567Z,2.90
2022-08-26T10:25:59.830Z,2.22
2022-08-26T10:28:50.005Z,3.28
2022-08-26T10:31:44.591Z,2.85
2022-08-26T10:34:21.243Z,2.35
2022-08-26T10:37:20.736Z,3.42
2022-08-26T10:40:01.489Z,2.80
2022-08-26T10:42:40.765Z,3.37
2022-08-26T10:45:22.415Z,3.00
2022-08-26T10:48:03.632Z,3.33
2022-08-26T10:50:43.374Z,3.92
2022-08-26T10:53:26.485Z,2.95
2022-08-26T10:56:18.651Z,3.08
2022-08-26T10:59:10.390Z,3.38
2022-08-26T11:01:59.531Z,3.95
2022-08-26T11:04:53.319Z,3.58
2022-08-26T11:07:45.284Z,4.65
2022-08-26T11:11:05.489Z,4.13
2022-08-26T11:14:07.543Z,4.38
2022-08-26T11:16:43.399Z,4.10
2022-08-26T11:20:08.917Z,4.03
2022-08-26T11:22:47.668Z,3.35
2022-08-26T11:25:23.566Z,3.53
2022-08-26T11:28:01.510Z,4.20
2022-08-26T11:30:48.040Z,3.75
2022-08-26T11:34:02.612Z,3.42
2022-08-26T12:09:28.154Z,3.33
2022-08-26T12:12:15.144Z,3.13
2022-08-26T12:14:47.599Z,3.42
2022-08-26T12:17:29.910Z,3.25
2022-08-26T12:20:00.349Z,2.70
2022-08-26T12:22:37.250Z,2.95
2022-08-26T12:25:12.696Z,3.10
2022-08-26T12:27:46.206Z,3.03
2022-08-26T12:30:26.153Z,2.60
2022-08-26T12:33:22.168Z,2.30
2022-08-26T12:35:56.678Z,3.17
2022-08-26T12:38:28.221Z,3.10
2022-08-26T12:41:00.210Z,2.60
2022-08-26T12:46:15.706Z,2.90
2022-08-26T12:48:50.596Z,4.07
2022-08-26T12:53:32.451Z,4.45
2022-08-26T12:56:05.529Z,3.58
2022-08-26T12:58:38.316Z,3.40
2022-08-26T13:01:25.107Z,3.03
2022-08-26T13:03:55.122Z,4.65
2022-08-26T13:06:31.683Z,3.67
2022-08-26T13:09:06.888Z,3.45
2022-08-26T13:12:02.125Z,3.22
2022-08-26T13:14:32.274Z,3.20
2022-08-26T13:17:02.417Z,3.00
2022-08-26T13:19:32.382Z,3.70
2022-08-26T13:22:04.749Z,3.38
2022-08-26T13:24:39.972Z,3.33
2022-08-26T13:27:13.195Z,3.60
2022-08-26T13:29:43.017Z,3.55
2022-08-26T13:32:13.134Z,3.60
2022-08-26T13:34:43.138Z,3.20
2022-08-26T13:37:13.166Z,2.53
2022-08-26T13:39:44.691Z,2.55
2022-08-26T13:42:14.509Z,2.63
2022-08-26T13:44:45.475Z,2.50
2022-08-26T13:47:15.561Z,2.15
2022-08-26T13:49:46.584Z,2.63
2022-08-26T13:52:16.936Z,2.80
2022-08-26T13:54:57.075Z,2.42
2022-08-26T13:57:28.397Z,3.00
2022-08-26T13:59:59.622Z,2.60
2022-08-26T14:02:31.339Z,2.27
2022-08-26T14:05:01.056Z,2.20
2022-08-26T14:07:30.837Z,1.85
2022-08-26T14:10:02.175Z,1.90
2022-08-26T14:12:32.069Z,2.00
2022-08-26T14:15:01.994Z,2.00
2022-08-26T14:17:33.294Z,2.17
2022-08-26T14:20:06.018Z,1.53
2022-08-26T14:22:40.402Z,1.75
2022-08-26T14:25:16.612Z,1.50
2022-08-26T14:27:46.513Z,1.52
2022-08-26T14:30:16.657Z,1.15
2022-08-26T14:32:50.558Z,1.20
2022-08-26T14:35:23.055Z,1.45
2022-08-26T14:37:53.921Z,1.52
2022-08-26T14:40:28.483Z,1.55
2022-08-26T14:42:59.036Z,1.48
2022-08-26T14:45:31.965Z,1.67
2022-08-26T14:48:02.236Z,1.85
2022-08-26T14:50:32.956Z,1.80
2022-08-26T14:53:20.232Z,1.65
2022-08-26T14:55:51.916Z,2.08
2022-08-26T14:58:22.613Z,1.95
2022-08-26T15:00:52.457Z,2.42
2022-08-26T15:03:22.395Z,2.47
2022-08-26T15:05:52.231Z,2.03
2022-08-26T15:08:22.310Z,1.90
2022-08-26T15:10:53.788Z,2.13
2022-08-26T15:13:24.093Z,2.70
2022-08-26T15:15:54.054Z,2.08
2022-08-26T15:18:24.054Z,1.98
2022-08-26T15:20:53.918Z,2.28
2022-08-26T15:23:23.737Z,2.35
2022-08-26T15:25:55.252Z,2.10
2022-08-26T15:28:26.753Z,1.67
2022-08-26T15:30:56.876Z,1.83
2022-08-26T15:33:26.692Z,2.75
2022-08-26T15:35:56.555Z,2.33
2022-08-26T15:38:26.418Z,2.08
2022-08-26T15:41:01.016Z,1.75
2022-08-26T15:43:33.471Z,2.03
2022-08-26T15:46:03.606Z,1.48
2022-08-26T15:48:33.656Z,1.80
2022-08-26T15:53:31.086Z,1.33
2022-08-26T15:56:03.053Z,2.10
2022-08-26T15:58:33.392Z,1.52
2022-08-26T16:01:06.559Z,1.83
2022-08-26T16:03:36.732Z,2.17
2022-08-26T16:06:07.250Z,1.80
2022-08-26T16:08:38.624Z,2.08
2022-08-26T16:11:08.918Z,1.73
2022-08-26T16:13:39.922Z,1.70
2022-08-26T16:16:11.167Z,1.90
2022-08-26T16:18:41.215Z,1.30
2022-08-26T16:21:13.381Z,2.65
2022-08-26T16:23:45.717Z,2.70
2022-08-26T16:26:21.267Z,2.67
2022-08-26T16:28:51.439Z,1.90
2022-08-26T16:31:22.445Z,2.38
2022-08-26T16:33:52.476Z,2.70
2022-08-26T16:36:22.572Z,2.40
2022-08-26T16:38:56.664Z,2.40
2022-08-26T16:41:28.818Z,1.90
2022-08-26T16:43:58.995Z,2.28
2022-08-26T16:46:30.480Z,2.08
2022-08-26T16:49:03.975Z,2.78
2022-08-26T16:51:38.175Z,1.90
2022-08-26T16:54:10.477Z,2.17
2022-08-26T16:59:12.696Z,2.20
2022-08-26T17:01:42.751Z,2.50
2022-08-26T17:04:14.796Z,2.47
2022-08-26T17:09:16.116Z,3.20
2022-08-26T17:11:46.776Z,2.53
2022-08-26T17:14:16.675Z,2.58
2022-08-26T17:16:51.476Z,2.28
2022-08-26T17:19:21.974Z,2.38
2022-08-26T17:21:52.072Z,2.92
2022-08-26T17:24:23.556Z,2.58
2022-08-26T17:26:55.754Z,3.17
2022-08-26T17:29:25.936Z,2.80
2022-08-26T17:31:55.752Z,2.45
2022-08-26T17:34:26.697Z,2.92
2022-08-26T17:36:56.641Z,2.53
2022-08-26T17:39:28.171Z,2.72
2022-08-26T17:41:57.935Z,3.00
2022-08-26T17:44:27.999Z,2.30
2022-08-26T17:46:57.954Z,2.55
2022-08-26T17:49:28.231Z,2.95
2022-08-26T17:52:00.662Z,2.97
2022-08-26T17:54:32.376Z,3.03
2022-08-26T17:57:02.284Z,2.92
2022-08-26T17:59:32.213Z,2.58
2022-08-26T18:02:02.136Z,3.53
2022-08-26T18:04:32.155Z,4.15
2022-08-26T18:07:01.957Z,6.30
2022-08-26T18:09:34.716Z,3.30
2022-08-26T18:12:05.302Z,3.03
2022-08-26T18:14:36.467Z,3.70
2022-08-26T18:17:07.289Z,4.47
2022-08-26T18:19:37.491Z,4.60
2022-08-26T18:22:08.080Z,3.17
2022-08-26T18:24:39.754Z,3.45
2022-08-26T18:27:25.413Z,4.72
2022-08-26T18:29:56.294Z,5.72
2022-08-26T18:32:26.235Z,5.28
2022-08-26T18:34:56.323Z,5.53
2022-08-26T18:37:28.055Z,6.80
2022-08-26T18:40:02.601Z,7.55
2022-08-26T18:42:33.971Z,6.78
2022-08-26T18:45:04.097Z,7.88
2022-08-26T18:47:35.195Z,5.68
2022-08-26T18:53:29.703Z,7.65
2022-08-26T18:55:59.967Z,5.93
2022-08-26T18:58:30.052Z,6.25
2022-08-26T19:01:00.011Z,5.40
2022-08-26T19:03:30.154Z,4.50
2022-08-26T19:06:00.034Z,5.57
2022-08-26T19:08:31.572Z,4.68
2022-08-26T19:11:02.692Z,5.13
2022-08-26T19:13:33.074Z,5.00
2022-08-26T19:16:03.057Z,4.97
2022-08-26T19:18:33.474Z,4.57
2022-08-26T19:21:06.537Z,4.82
2022-08-26T19:26:10.238Z,3.83
2022-08-26T19:31:11.935Z,4.20
2022-08-26T19:33:43.935Z,4.47
2022-08-26T19:36:19.387Z,4.30
2022-08-26T19:38:51.853Z,4.13
2022-08-26T19:41:36.659Z,4.40
2022-08-26T19:44:11.312Z,3.88
2022-08-26T19:46:41.999Z,4.25
2022-08-26T19:49:12.051Z,3.67
2022-08-26T19:51:41.976Z,4.70
2022-08-26T19:54:13.393Z,4.07
2022-08-26T19:56:44.996Z,4.50
2022-08-26T19:59:18.411Z,3.72
2022-08-26T20:01:55.195Z,3.88
2022-08-26T20:04:31.015Z,4.30
2022-08-26T20:07:01.163Z,3.95
2022-08-26T20:09:34.309Z,3.83
2022-08-26T20:12:05.475Z,3.95
2022-08-26T20:14:36.651Z,3.65
2022-08-26T20:17:07.838Z,4.28
2022-08-26T20:19:55.061Z,4.00
2022-08-26T20:22:25.853Z,3.70
2022-08-26T20:24:57.353Z,4.20
2022-08-26T20:27:37.820Z,4.40
2022-08-26T20:30:11.946Z,4.18
2022-08-26T20:32:43.101Z,4.50
2022-08-26T20:35:16.175Z,4.53
2022-08-26T20:37:46.117Z,4.45
2022-08-26T20:40:17.772Z,4.22
2022-08-26T20:42:49.331Z,4.30
2022-08-26T20:45:19.672Z,3.80
2022-08-26T20:47:49.390Z,3.67
2022-08-26T20:50:19.631Z,3.85
2022-08-26T20:52:49.553Z,4.57
2022-08-26T20:55:21.299Z,4.53
2022-08-26T20:57:52.297Z,4.78
2022-08-26T21:00:26.422Z,4.05
2022-08-26T21:02:57.953Z,4.63
2022-08-26T21:05:27.954Z,4.60
2022-08-26T21:07:57.770Z,4.25
2022-08-26T21:10:30.770Z,5.28
2022-08-26T21:13:00.917Z,4.43
2022-08-26T21:15:32.214Z,4.30
2022-08-26T21:18:03.635Z,3.95
2022-08-26T21:20:34.193Z,4.37
2022-08-26T21:23:04.252Z,4.20
2022-08-26T21:25:35.652Z,4.22
2022-08-26T21:28:06.146Z,5.03
2022-08-26T21:30:39.894Z,4.22
2022-08-26T21:33:10.303Z,4.15
2022-08-26T21:35:40.323Z,5.55
2022-08-26T21:38:10.326Z,4.88
2022-08-26T21:40:41.869Z,4.70
2022-08-26T21:43:13.142Z,3.90
2022-08-26T21:45:57.904Z,4.05
2022-08-26T21:48:32.263Z,4.55
2022-08-26T21:53:28.916Z,4.35
2022-08-26T21:55:58.834Z,5.35
2022-08-26T21:58:28.898Z,4.00
2022-08-26T22:00:58.979Z,4.80
2022-08-26T22:03:29.501Z,4.00
2022-08-26T22:06:05.109Z,4.07
2022-08-26T22:08:37.895Z,4.07
2022-08-26T22:11:07.948Z,3.97
2022-08-26T22:13:40.350Z,4.10
2022-08-26T22:16:11.789Z,3.80
2022-08-26T22:18:43.573Z,4.00
2022-08-26T22:21:16.637Z,4.55
2022-08-26T22:23:48.789Z,3.60
2022-08-26T22:26:25.848Z,4.32
2022-08-26T22:28:59.201Z,3.38
2022-08-26T22:31:37.709Z,3.83
2022-08-26T22:34:11.143Z,4.07
2022-08-26T22:36:48.237Z,4.35
2022-08-26T22:39:22.516Z,4.35
2022-08-26T22:41:53.259Z,4.38
2022-08-26T22:44:24.770Z,3.65
2022-08-26T22:46:55.830Z,3.43
2022-08-26T22:49:26.551Z,4.53
2022-08-26T22:51:56.662Z,4.00
2022-08-26T22:54:28.372Z,4.00
2022-08-26T22:56:58.315Z,4.40
2022-08-26T22:59:28.161Z,4.13
2022-08-26T23:01:58.724Z,3.83
2022-08-26T23:04:28.654Z,4.10
2022-08-26T23:06:58.497Z,4.57
2022-08-26T23:09:29.911Z,4.20
2022-08-26T23:11:59.975Z,4.07
2022-08-26T23:14:29.869Z,3.85
2022-08-26T23:16:59.831Z,4.00
2022-08-26T23:19:29.773Z,3.83
2022-08-26T23:21:59.692Z,3.85
2022-08-26T23:24:31.072Z,4.63
2022-08-26T23:27:01.039Z,3.85
2022-08-26T23:29:31.311Z,3.47
2022-08-26T23:32:01.336Z,4.03
2022-08-26T23:34:48.598Z,4.30
2022-08-26T23:37:19.911Z,4.22
2022-08-26T23:39:52.898Z,3.88
2022-08-26T23:42:23.242Z,3.75
2022-08-26T23:44:53.720Z,4.03
2022-08-26T23:47:23.692Z,3.95
2022-08-26T23:49:53.613Z,3.80
2022-08-26T23:52:41.084Z,3.97
2022-08-26T23:55:13.244Z,4.18
2022-08-26T23:57:43.575Z,4.13
